Time;durP1;ratioP1;P1;durP2;ratioP2;P2;SDS_P1;SDS_P2;PMS_P1;PMS_P2;Temp;Humidity;BMP_temperature;BMP_pressure;BME280_temperature;BME280_humidity;BME280_pressure;Samples;Min_cycle;Max_cycle;Signal;HPM_P1;HPM_P2
2023/08/28 00:00:12;;;;;;;2.60;0.90;;;;;;;;;;5028298;28;20565;-64
2023/08/28 00:02:41;;;;;;;1.63;0.80;;;;;;;;;;5027862;28;20152;-61
2023/08/28 00:05:09;;;;;;;1.67;1.00;;;;;;;;;;5028840;28;20053;-62
2023/08/28 00:07:38;;;;;;;2.92;0.93;;;;;;;;;;5028484;28;20095;-62
2023/08/28 00:10:09;;;;;;;2.20;0.95;;;;;;;;;;5026060;28;20445;-61
2023/08/28 00:12:40;;;;;;;2.28;1.00;;;;;;;;;;5023920;28;20512;-63
2023/08/28 00:15:09;;;;;;;1.85;1.00;;;;;;;;;;5027238;28;20457;-61
2023/08/28 00:17:37;;;;;;;1.92;1.00;;;;;;;;;;5029472;28;20103;-63
2023/08/28 00:20:07;;;;;;;2.53;1.10;;;;;;;;;;5027673;28;20046;-62
2023/08/28 00:22:36;;;;;;;1.90;1.10;;;;;;;;;;5029254;28;20049;-62
2023/08/28 00:25:06;;;;;;;2.13;0.90;;;;;;;;;;5025241;28;20452;-63
2023/08/28 00:27:36;;;;;;;1.92;0.90;;;;;;;;;;5027348;28;20073;-62
2023/08/28 00:30:05;;;;;;;1.75;1.10;;;;;;;;;;5027194;28;20045;-62
2023/08/28 00:32:35;;;;;;;3.15;1.02;;;;;;;;;;5027128;28;20053;-62
2023/08/28 00:35:05;;;;;;;3.08;1.02;;;;;;;;;;5025809;28;20433;-61
2023/08/28 00:37:33;;;;;;;1.60;0.95;;;;;;;;;;5026049;28;20041;-62
2023/08/28 00:40:03;;;;;;;3.10;1.27;;;;;;;;;;5027655;28;20080;-61
2023/08/28 00:42:31;;;;;;;3.03;1.23;;;;;;;;;;5033147;28;20391;-62
2023/08/28 00:45:01;;;;;;;3.17;0.98;;;;;;;;;;5024067;28;20042;-63
2023/08/28 00:47:29;;;;;;;1.67;0.93;;;;;;;;;;5021833;28;20049;-62
2023/08/28 00:49:58;;;;;;;0.85;0.75;;;;;;;;;;5019124;28;20127;-61
2023/08/28 00:52:26;;;;;;;2.00;0.88;;;;;;;;;;5028334;28;20122;-61
2023/08/28 00:54:54;;;;;;;1.73;0.85;;;;;;;;;;5028633;28;20123;-63
2023/08/28 00:57:24;;;;;;;3.17;1.10;;;;;;;;;;5026060;28;20143;-62
2023/08/28 00:59:52;;;;;;;1.40;0.90;;;;;;;;;;5025050;28;20053;-62
2023/08/28 01:02:22;;;;;;;1.83;1.00;;;;;;;;;;5028464;23;20050;-58
2023/08/28 01:04:50;;;;;;;2.67;1.10;;;;;;;;;;4981605;28;20054;-62
2023/08/28 01:07:22;;;;;;;1.50;0.70;;;;;;;;;;4980965;28;20047;-59
2023/08/28 01:09:55;;;;;;;2.67;1.00;;;;;;;;;;4987939;28;20096;-59
2023/08/28 01:12:29;;;;;;;1.42;0.80;;;;;;;;;;4978791;28;20334;-60
2023/08/28 01:15:00;;;;;;;3.75;1.15;;;;;;;;;;4985474;28;20113;-58
2023/08/28 01:17:30;;;;;;;1.40;0.90;;;;;;;;;;4988703;28;20046;-60
2023/08/28 01:20:00;;;;;;;1.90;1.10;;;;;;;;;;4976499;28;20087;-60
2023/08/28 01:22:33;;;;;;;1.70;1.15;;;;;;;;;;4979311;28;20050;-60
2023/08/28 01:25:07;;;;;;;1.20;0.85;;;;;;;;;;4984847;28;20070;-59
2023/08/28 01:27:35;;;;;;;1.30;0.65;;;;;;;;;;4988785;28;20046;-58
2023/08/28 01:30:08;;;;;;;2.58;1.17;;;;;;;;;;4987518;28;20134;-58
2023/08/28 01:32:36;;;;;;;1.50;0.90;;;;;;;;;;4980403;28;20051;-60
2023/08/28 01:35:06;;;;;;;2.30;0.90;;;;;;;;;;4988016;28;20050;-58
2023/08/28 01:37:40;;;;;;;2.47;1.25;;;;;;;;;;4980953;28;20074;-58
2023/08/28 01:40:11;;;;;;;2.47;1.05;;;;;;;;;;4984145;28;20046;-57
2023/08/28 01:42:39;;;;;;;2.05;1.25;;;;;;;;;;4987046;28;20043;-59
2023/08/28 01:45:08;;;;;;;2.03;0.80;;;;;;;;;;4972076;28;20530;-59
2023/08/28 01:47:36;;;;;;;1.75;0.93;;;;;;;;;;4988587;28;20082;-58
2023/08/28 01:50:05;;;;;;;2.38;1.13;;;;;;;;;;4969015;28;20500;-59
2023/08/28 01:52:34;;;;;;;2.50;1.27;;;;;;;;;;4969555;28;20046;-59
2023/08/28 01:55:02;;;;;;;2.95;1.40;;;;;;;;;;4978973;28;20058;-59
2023/08/28 01:57:32;;;;;;;2.20;1.13;;;;;;;;;;4982293;28;20550;-59
2023/08/28 02:00:00;;;;;;;2.92;0.93;;;;;;;;;;4977912;28;20081;-60
2023/08/28 02:02:28;;;;;;;2.25;1.17;;;;;;;;;;4972854;28;20113;-59
2023/08/28 02:04:57;;;;;;;2.15;1.00;;;;;;;;;;4974236;28;20062;-59
2023/08/28 02:07:25;;;;;;;2.30;1.15;;;;;;;;;;4973533;28;20121;-59
2023/08/28 02:09:56;;;;;;;4.15;1.48;;;;;;;;;;4992562;28;20563;-60
2023/08/28 02:12:25;;;;;;;1.65;0.90;;;;;;;;;;4979284;28;20046;-60
2023/08/28 02:14:55;;;;;;;1.55;1.10;;;;;;;;;;4987748;28;20551;-59
2023/08/28 02:17:23;;;;;;;2.50;1.30;;;;;;;;;;5003139;28;20089;-58
2023/08/28 02:19:52;;;;;;;2.50;1.27;;;;;;;;;;4978388;28;20046;-59
2023/08/28 02:22:20;;;;;;;2.55;1.10;;;;;;;;;;4988027;28;20411;-60
2023/08/28 02:24:48;;;;;;;2.10;0.90;;;;;;;;;;4990227;28;20503;-61
2023/08/28 02:27:17;;;;;;;2.05;1.05;;;;;;;;;;4980488;28;20143;-59
2023/08/28 02:29:45;;;;;;;2.08;0.95;;;;;;;;;;4990234;28;20089;-58
2023/08/28 02:32:15;;;;;;;2.35;1.08;;;;;;;;;;4991806;28;20121;-58
2023/08/28 02:34:44;;;;;;;3.05;1.00;;;;;;;;;;4984142;28;20543;-59
2023/08/28 02:37:12;;;;;;;2.55;1.40;;;;;;;;;;4990934;28;20050;-59
2023/08/28 02:39:40;;;;;;;2.95;1.27;;;;;;;;;;4976531;28;20188;-59
2023/08/28 02:42:09;;;;;;;1.65;1.08;;;;;;;;;;4982842;28;20471;-58
2023/08/28 02:44:37;;;;;;;3.08;1.27;;;;;;;;;;4988299;28;20504;-59
2023/08/28 02:47:06;;;;;;;3.05;1.35;;;;;;;;;;4980891;28;20431;-59
2023/08/28 02:49:35;;;;;;;2.28;1.25;;;;;;;;;;4980567;28;20101;-60
2023/08/28 02:52:04;;;;;;;3.63;1.48;;;;;;;;;;4976641;28;20475;-59
2023/08/28 02:54:32;;;;;;;4.13;0.90;;;;;;;;;;4993416;28;20069;-58
2023/08/28 02:57:01;;;;;;;1.55;0.90;;;;;;;;;;4982917;28;20463;-60
2023/08/28 02:59:29;;;;;;;2.38;1.20;;;;;;;;;;4982344;28;20046;-60
2023/08/28 03:01:58;;;;;;;1.83;1.00;;;;;;;;;;4971654;28;20543;-60
2023/08/28 03:04:26;;;;;;;3.80;1.10;;;;;;;;;;4983715;28;20138;-60
2023/08/28 03:06:56;;;;;;;2.40;1.00;;;;;;;;;;4977777;28;20492;-58
2023/08/28 03:09:25;;;;;;;2.58;1.13;;;;;;;;;;4977979;28;20078;-58
2023/08/28 03:11:54;;;;;;;2.08;1.05;;;;;;;;;;4985455;28;20109;-60
2023/08/28 03:14:22;;;;;;;2.40;1.20;;;;;;;;;;4988517;28;20664;-60
2023/08/28 03:16:50;;;;;;;1.45;0.82;;;;;;;;;;4990679;28;20439;-60
2023/08/28 03:19:19;;;;;;;3.00;0.95;;;;;;;;;;4989323;28;20082;-59
2023/08/28 03:21:47;;;;;;;4.22;1.00;;;;;;;;;;4979574;28;20066;-59
2023/08/28 03:24:17;;;;;;;1.88;1.00;;;;;;;;;;4981445;28;20466;-59
2023/08/28 03:26:48;;;;;;;1.92;1.05;;;;;;;;;;4988995;28;20054;-59
2023/08/28 03:29:16;;;;;;;1.73;0.95;;;;;;;;;;4980333;28;20504;-58
2023/08/28 03:31:45;;;;;;;3.00;1.08;;;;;;;;;;4975989;28;20105;-58
2023/08/28 03:34:13;;;;;;;4.55;1.20;;;;;;;;;;4983386;28;20097;-58
2023/08/28 03:36:42;;;;;;;2.00;1.00;;;;;;;;;;4972219;28;20074;-59
2023/08/28 03:39:11;;;;;;;2.35;1.13;;;;;;;;;;4992585;28;20116;-59
2023/08/28 03:41:40;;;;;;;1.38;0.93;;;;;;;;;;4981539;28;20110;-58
2023/08/28 03:44:09;;;;;;;1.33;1.00;;;;;;;;;;4978319;28;20090;-61
2023/08/28 03:46:37;;;;;;;3.40;1.40;;;;;;;;;;4984165;28;20179;-59
2023/08/28 03:49:05;;;;;;;1.65;0.80;;;;;;;;;;4987325;28;20073;-59
2023/08/28 03:51:34;;;;;;;2.70;1.10;;;;;;;;;;4976051;28;20051;-59
2023/08/28 03:54:02;;;;;;;1.75;1.05;;;;;;;;;;4989165;28;20487;-59
2023/08/28 03:56:31;;;;;;;1.38;0.98;;;;;;;;;;4974727;28;20133;-59
2023/08/28 03:59:00;;;;;;;1.33;0.85;;;;;;;;;;4984168;28;20467;-58
2023/08/28 04:01:29;;;;;;;2.50;1.05;;;;;;;;;;4986045;28;20082;-59
2023/08/28 04:03:57;;;;;;;2.35;1.00;;;;;;;;;;4988432;28;20054;-59
2023/08/28 04:06:26;;;;;;;2.83;1.13;;;;;;;;;;4986925;28;20073;-59
2023/08/28 04:08:54;;;;;;;2.88;0.95;;;;;;;;;;4974184;28;20051;-59
2023/08/28 04:11:22;;;;;;;2.47;1.10;;;;;;;;;;4980167;28;20669;-58
2023/08/28 04:13:51;;;;;;;1.83;1.00;;;;;;;;;;4990016;28;20519;-59
2023/08/28 04:16:21;;;;;;;3.42;1.58;;;;;;;;;;4979510;28;20058;-60
2023/08/28 04:18:49;;;;;;;3.45;1.15;;;;;;;;;;4985519;28;20284;-58
2023/08/28 04:21:18;;;;;;;1.40;1.00;;;;;;;;;;4980598;28;20120;-58
2023/08/28 04:23:46;;;;;;;1.75;1.05;;;;;;;;;;4987485;28;20163;-59
2023/08/28 04:26:15;;;;;;;3.63;1.10;;;;;;;;;;4986075;28;20042;-60
2023/08/28 04:28:43;;;;;;;2.90;0.95;;;;;;;;;;4989295;28;20117;-60
2023/08/28 04:31:13;;;;;;;2.92;1.10;;;;;;;;;;4989841;28;20046;-60
2023/08/28 04:33:43;;;;;;;1.70;0.75;;;;;;;;;;4989581;28;20046;-58
2023/08/28 04:36:11;;;;;;;1.95;1.10;;;;;;;;;;4982603;28;20093;-58
2023/08/28 04:38:40;;;;;;;2.70;1.60;;;;;;;;;;4983906;28;20145;-59
2023/08/28 04:41:08;;;;;;;2.67;1.10;;;;;;;;;;4983478;28;20050;-58
2023/08/28 04:43:36;;;;;;;2.60;1.20;;;;;;;;;;4991929;28;20669;-59
2023/08/28 04:46:06;;;;;;;2.75;1.38;;;;;;;;;;4988914;28;20534;-58
2023/08/28 04:48:35;;;;;;;4.07;1.40;;;;;;;;;;4989030;28;20050;-58
2023/08/28 04:51:05;;;;;;;1.55;1.13;;;;;;;;;;4982240;28;20419;-59
2023/08/28 04:53:33;;;;;;;1.77;1.20;;;;;;;;;;4984113;28;20050;-58
2023/08/28 04:56:02;;;;;;;3.05;1.50;;;;;;;;;;4983889;28;20311;-58
2023/08/28 04:58:30;;;;;;;4.80;1.27;;;;;;;;;;4983038;28;20073;-57
2023/08/28 05:00:59;;;;;;;5.03;1.20;;;;;;;;;;4979773;28;20054;-58
2023/08/28 05:03:27;;;;;;;2.35;1.40;;;;;;;;;;4985911;28;20058;-60
2023/08/28 05:05:56;;;;;;;3.17;1.50;;;;;;;;;;4982165;28;20050;-59
2023/08/28 05:08:26;;;;;;;1.88;1.23;;;;;;;;;;4985222;28;20399;-58
2023/08/28 05:10:54;;;;;;;1.55;0.80;;;;;;;;;;4977859;28;20054;-58
2023/08/28 05:13:22;;;;;;;3.03;1.27;;;;;;;;;;4982311;28;20447;-60
2023/08/28 05:15:53;;;;;;;2.92;1.20;;;;;;;;;;4981161;28;20246;-58
2023/08/28 05:18:22;;;;;;;1.67;1.00;;;;;;;;;;4975817;28;20437;-60
2023/08/28 05:20:50;;;;;;;2.85;0.90;;;;;;;;;;4983108;28;20112;-59
2023/08/28 05:23:24;;;;;;;2.35;1.10;;;;;;;;;;4980416;28;20057;-58
2023/08/28 05:25:55;;;;;;;1.92;1.20;;;;;;;;;;4980732;28;20555;-59
2023/08/28 05:28:23;;;;;;;2.95;1.30;;;;;;;;;;4979928;28;20043;-60
2023/08/28 05:30:51;;;;;;;2.13;1.23;;;;;;;;;;4975831;28;20811;-61
2023/08/28 05:33:20;;;;;;;2.10;1.10;;;;;;;;;;4978880;28;20050;-59
2023/08/28 05:35:48;;;;;;;2.00;0.98;;;;;;;;;;4979417;28;20058;-58
2023/08/28 05:38:17;;;;;;;4.45;1.20;;;;;;;;;;4976434;28;20051;-59
2023/08/28 05:40:45;;;;;;;2.08;1.30;;;;;;;;;;4976590;28;20049;-59
2023/08/28 05:43:15;;;;;;;1.95;1.20;;;;;;;;;;4979012;28;20109;-60
2023/08/28 05:45:43;;;;;;;2.53;1.15;;;;;;;;;;4979146;28;20042;-59
2023/08/28 05:48:12;;;;;;;1.75;1.15;;;;;;;;;;4979909;28;20078;-61
2023/08/28 05:50:41;;;;;;;2.45;1.08;;;;;;;;;;4980234;28;20120;-62
2023/08/28 05:53:10;;;;;;;4.50;1.23;;;;;;;;;;4978873;28;20047;-60
2023/08/28 05:55:38;;;;;;;3.00;1.33;;;;;;;;;;4976200;28;20077;-60
2023/08/28 05:58:07;;;;;;;3.55;1.30;;;;;;;;;;4981296;28;20057;-60
2023/08/28 06:00:36;;;;;;;3.67;1.33;;;;;;;;;;4976103;28;20054;-60
2023/08/28 06:03:06;;;;;;;2.25;1.30;;;;;;;;;;4977812;28;20077;-60
2023/08/28 06:05:35;;;;;;;3.03;1.10;;;;;;;;;;4977150;28;20062;-59
2023/08/28 06:08:04;;;;;;;5.85;1.63;;;;;;;;;;4980850;28;20074;-60
2023/08/28 06:10:33;;;;;;;3.63;1.20;;;;;;;;;;4975488;28;20513;-62
2023/08/28 06:13:04;;;;;;;1.88;1.27;;;;;;;;;;4979142;28;20042;-59
2023/08/28 06:15:33;;;;;;;2.03;1.35;;;;;;;;;;4979254;28;20546;-59
2023/08/28 06:18:04;;;;;;;2.53;1.63;;;;;;;;;;4976613;28;20058;-60
2023/08/28 06:20:34;;;;;;;2.30;1.40;;;;;;;;;;4975526;28;20054;-60
2023/08/28 06:23:02;;;;;;;2.67;1.38;;;;;;;;;;4977734;28;20051;-62
2023/08/28 06:25:31;;;;;;;4.05;1.30;;;;;;;;;;4976999;28;20054;-59
2023/08/28 06:28:00;;;;;;;3.45;1.30;;;;;;;;;;4979653;28;20484;-60
2023/08/28 06:30:28;;;;;;;2.47;1.30;;;;;;;;;;4980615;28;20193;-60
2023/08/28 06:32:58;;;;;;;3.25;1.38;;;;;;;;;;4974884;28;20524;-59
2023/08/28 06:35:28;;;;;;;3.53;1.60;;;;;;;;;;4977442;28;20082;-62
2023/08/28 06:37:57;;;;;;;2.17;1.20;;;;;;;;;;4979399;28;20050;-59
2023/08/28 06:40:25;;;;;;;5.72;1.60;;;;;;;;;;4978242;28;20125;-62
2023/08/28 06:42:53;;;;;;;3.10;1.48;;;;;;;;;;4977580;28;20487;-60
2023/08/28 06:45:22;;;;;;;1.83;1.20;;;;;;;;;;4980610;28;20847;-60
2023/08/28 06:47:50;;;;;;;3.33;1.63;;;;;;;;;;4978516;28;20507;-60
2023/08/28 06:50:19;;;;;;;5.25;1.52;;;;;;;;;;4982039;28;20069;-61
2023/08/28 06:52:49;;;;;;;1.73;1.30;;;;;;;;;;4983214;28;20054;-62
2023/08/28 06:55:20;;;;;;;1.98;1.20;;;;;;;;;;4982572;28;20425;-59
2023/08/28 06:57:49;;;;;;;1.85;1.05;;;;;;;;;;4980092;28;20082;-61
2023/08/28 07:00:17;;;;;;;4.25;1.40;;;;;;;;;;4979879;28;20451;-62
2023/08/28 07:02:46;;;;;;;3.13;1.58;;;;;;;;;;4982291;28;20093;-60
2023/08/28 07:05:15;;;;;;;2.17;1.38;;;;;;;;;;4982707;28;20140;-61
2023/08/28 07:07:43;;;;;;;2.92;1.15;;;;;;;;;;4980764;28;20046;-63
2023/08/28 07:10:13;;;;;;;2.55;1.30;;;;;;;;;;4976672;28;20074;-60
2023/08/28 07:12:41;;;;;;;2.65;1.45;;;;;;;;;;4977265;28;20145;-59
2023/08/28 07:15:28;;;;;;;2.85;1.40;;;;;;;;;;4981035;28;20494;-61
2023/08/28 07:17:56;;;;;;;2.08;1.40;;;;;;;;;;4977110;28;20105;-60
2023/08/28 07:20:25;;;;;;;1.42;1.10;;;;;;;;;;4979137;28;20490;-63
2023/08/28 07:22:53;;;;;;;2.72;1.30;;;;;;;;;;4980922;28;20051;-61
2023/08/28 07:25:23;;;;;;;3.95;1.42;;;;;;;;;;4981834;28;20244;-59
2023/08/28 07:27:52;;;;;;;3.08;1.40;;;;;;;;;;4980947;28;20046;-60
2023/08/28 07:30:20;;;;;;;6.55;1.30;;;;;;;;;;4980790;28;20171;-59
2023/08/28 07:32:49;;;;;;;2.38;1.25;;;;;;;;;;4981757;28;20108;-60
2023/08/28 07:35:17;;;;;;;2.03;1.23;;;;;;;;;;4980398;28;20046;-61
2023/08/28 07:37:45;;;;;;;2.22;1.42;;;;;;;;;;4981549;28;20521;-59
2023/08/28 07:40:14;;;;;;;2.38;1.25;;;;;;;;;;4978831;28;20149;-60
2023/08/28 07:42:43;;;;;;;1.75;1.20;;;;;;;;;;4977298;28;20464;-59
2023/08/28 07:45:12;;;;;;;2.45;1.25;;;;;;;;;;4982080;28;20510;-61
2023/08/28 07:47:40;;;;;;;2.65;1.40;;;;;;;;;;4976877;28;20073;-62
2023/08/28 07:50:12;;;;;;;2.88;1.30;;;;;;;;;;4976245;28;20046;-60
2023/08/28 07:52:40;;;;;;;2.00;1.20;;;;;;;;;;4978012;28;20053;-58
2023/08/28 07:55:09;;;;;;;2.85;1.20;;;;;;;;;;4981402;28;20046;-59
2023/08/28 07:57:37;;;;;;;2.30;1.15;;;;;;;;;;4977894;28;20077;-60
2023/08/28 08:00:12;;;;;;;3.45;1.38;;;;;;;;;;4973074;28;20050;-59
2023/08/28 08:02:41;;;;;;;;;;;;;;;;;;4974840;28;20588;-62
2023/08/28 08:05:10;;;;;;;2.58;1.40;;;;;;;;;;4973358;28;20009;-60
2023/08/28 08:07:40;;;;;;;1.73;1.27;;;;;;;;;;4978020;28;20059;-59
2023/08/28 08:10:09;;;;;;;2.72;1.15;;;;;;;;;;4976205;28;20053;-60
2023/08/28 08:12:39;;;;;;;2.10;1.27;;;;;;;;;;4977627;28;20051;-59
2023/08/28 08:15:09;;;;;;;2.00;0.95;;;;;;;;;;4977015;28;20073;-61
2023/08/28 08:17:38;;;;;;;1.65;1.10;;;;;;;;;;4977901;28;20113;-59
2023/08/28 08:20:09;;;;;;;4.40;1.48;;;;;;;;;;4981330;28;20408;-59
2023/08/28 08:22:38;;;;;;;4.55;1.40;;;;;;;;;;4977024;28;20039;-60
2023/08/28 08:25:09;;;;;;;2.58;1.15;;;;;;;;;;4978693;28;20049;-63
2023/08/28 08:27:38;;;;;;;1.60;1.10;;;;;;;;;;4977026;28;20745;-60
2023/08/28 08:30:09;;;;;;;1.67;1.10;;;;;;;;;;4975658;28;20577;-59
2023/08/28 08:32:38;;;;;;;3.10;1.23;;;;;;;;;;4979126;28;20257;-61
2023/08/28 08:35:07;;;;;;;2.35;1.15;;;;;;;;;;4981416;28;20058;-59
2023/08/28 08:37:35;;;;;;;1.55;1.00;;;;;;;;;;4978296;28;20389;-62
2023/08/28 08:40:04;;;;;;;1.95;1.35;;;;;;;;;;4977678;28;20054;-59
2023/08/28 08:42:32;;;;;;;1.75;1.10;;;;;;;;;;4977870;28;20050;-61
2023/08/28 08:45:01;;;;;;;2.28;1.38;;;;;;;;;;4975693;28;20047;-60
2023/08/28 08:47:31;;;;;;;1.40;0.90;;;;;;;;;;4981185;28;20261;-59
2023/08/28 08:50:01;;;;;;;2.63;1.10;;;;;;;;;;4979434;28;20491;-60
2023/08/28 08:52:30;;;;;;;2.03;0.90;;;;;;;;;;4982315;28;20070;-58
2023/08/28 08:55:01;;;;;;;1.65;1.17;;;;;;;;;;4981294;28;20050;-60
2023/08/28 08:57:35;;;;;;;1.33;0.98;;;;;;;;;;4972280;28;20054;-61
2023/08/28 09:00:07;;;;;;;3.45;1.17;;;;;;;;;;4976201;28;20046;-60
2023/08/28 09:02:37;;;;;;;2.75;1.20;;;;;;;;;;4979011;28;20053;-60
2023/08/28 09:05:06;;;;;;;1.67;1.00;;;;;;;;;;4980643;28;20078;-60
2023/08/28 09:07:37;;;;;;;1.00;0.80;;;;;;;;;;4979925;28;20046;-60
2023/08/28 09:10:06;;;;;;;2.10;1.00;;;;;;;;;;4977734;28;20054;-63
2023/08/28 09:12:34;;;;;;;1.52;0.93;;;;;;;;;;4975404;28;20042;-60
2023/08/28 09:15:04;;;;;;;2.28;0.93;;;;;;;;;;4979280;28;20057;-60
2023/08/28 09:17:33;;;;;;;2.75;1.00;;;;;;;;;;4978507;28;20051;-60
2023/08/28 09:20:13;;;;;;;8.05;1.10;;;;;;;;;;4980029;28;20491;-59
2023/08/28 09:22:46;;;;;;;4.65;1.20;;;;;;;;;;4979067;28;20161;-61
2023/08/28 09:25:22;;;;;;;2.80;1.13;;;;;;;;;;4979353;28;20436;-59
2023/08/28 09:27:51;;;;;;;1.83;1.17;;;;;;;;;;4975788;28;20587;-58
2023/08/28 09:30:30;;;;;;;1.60;0.98;;;;;;;;;;4974900;28;20057;-59
2023/08/28 09:32:59;;;;;;;2.67;1.02;;;;;;;;;;4977652;28;20054;-59
2023/08/28 09:35:29;;;;;;;2.03;1.00;;;;;;;;;;4979097;28;20141;-59
2023/08/28 09:37:58;;;;;;;1.73;1.02;;;;;;;;;;4977211;28;20144;-63
2023/08/28 09:40:27;;;;;;;2.00;1.13;;;;;;;;;;4978108;28;20053;-59
2023/08/28 09:42:55;;;;;;;1.88;1.00;;;;;;;;;;4978736;28;20054;-59
2023/08/28 09:45:24;;;;;;;2.47;0.85;;;;;;;;;;4979545;28;20458;-58
2023/08/28 09:47:55;;;;;;;2.25;0.90;;;;;;;;;;4979967;28;20042;-62
2023/08/28 09:50:24;;;;;;;3.28;0.90;;;;;;;;;;4975856;28;20487;-61
2023/08/28 09:52:54;;;;;;;1.67;1.23;;;;;;;;;;4980027;28;20049;-59
2023/08/28 09:55:23;;;;;;;1.33;0.80;;;;;;;;;;4977348;28;20054;-59
2023/08/28 09:57:51;;;;;;;1.45;0.98;;;;;;;;;;4979155;28;20050;-59
2023/08/28 10:00:20;;;;;;;1.17;0.75;;;;;;;;;;4977890;28;20058;-59
2023/08/28 10:02:49;;;;;;;3.97;1.45;;;;;;;;;;4977572;28;20074;-59
2023/08/28 10:05:17;;;;;;;1.73;1.10;;;;;;;;;;4975711;28;20397;-59
2023/08/28 10:07:46;;;;;;;1.92;0.90;;;;;;;;;;4979951;28;20138;-63
2023/08/28 10:10:18;;;;;;;1.50;0.90;;;;;;;;;;4979878;28;20190;-60
2023/08/28 10:12:46;;;;;;;1.63;1.02;;;;;;;;;;4977701;28;20109;-60
2023/08/28 10:15:18;;;;;;;1.40;0.93;;;;;;;;;;4973102;28;20137;-60
2023/08/28 10:17:46;;;;;;;2.25;0.98;;;;;;;;;;4975440;28;20144;-60
2023/08/28 10:20:15;;;;;;;1.42;0.80;;;;;;;;;;4978619;28;20054;-59
2023/08/28 10:22:44;;;;;;;1.20;0.88;;;;;;;;;;4986698;28;20106;-60
2023/08/28 10:25:13;;;;;;;1.23;0.82;;;;;;;;;;4983730;28;20093;-60
2023/08/28 10:27:43;;;;;;;1.90;0.70;;;;;;;;;;4984033;28;20077;-60
2023/08/28 10:30:13;;;;;;;0.82;0.73;;;;;;;;;;4979596;28;20458;-61
2023/08/28 10:32:43;;;;;;;2.67;0.88;;;;;;;;;;4984132;28;20096;-59
2023/08/28 10:35:11;;;;;;;1.60;0.75;;;;;;;;;;4982547;28;20047;-59
2023/08/28 10:37:41;;;;;;;1.08;0.70;;;;;;;;;;4978268;28;20046;-60
2023/08/28 10:40:10;;;;;;;0.80;0.60;;;;;;;;;;4974916;28;20054;-60
2023/08/28 10:42:39;;;;;;;2.60;0.90;;;;;;;;;;4980778;28;20558;-62
2023/08/28 10:45:09;;;;;;;1.48;0.90;;;;;;;;;;4976318;28;20525;-60
2023/08/28 10:47:40;;;;;;;2.08;0.90;;;;;;;;;;4977510;28;20058;-62
2023/08/28 10:50:09;;;;;;;1.10;0.80;;;;;;;;;;4975458;28;20081;-60
2023/08/28 10:52:38;;;;;;;1.17;0.80;;;;;;;;;;4982035;28;20050;-60
2023/08/28 10:55:06;;;;;;;2.13;1.65;;;;;;;;;;4983183;28;20074;-65
2023/08/28 10:57:39;;;;;;;1.42;0.85;;;;;;;;;;4981444;28;20716;-59
2023/08/28 11:00:17;;;;;;;1.08;0.70;;;;;;;;;;4982670;28;20045;-61
2023/08/28 11:03:06;;;;;;;1.50;0.95;;;;;;;;;;4982762;28;20054;-59
2023/08/28 11:05:35;;;;;;;0.82;0.70;;;;;;;;;;4983155;28;20054;-59
2023/08/28 11:08:06;;;;;;;1.10;0.70;;;;;;;;;;4976731;28;20710;-63
2023/08/28 11:10:36;;;;;;;2.83;0.90;;;;;;;;;;4983274;28;20054;-59
2023/08/28 11:13:05;;;;;;;1.40;0.73;;;;;;;;;;4980127;28;20144;-59
2023/08/28 11:15:36;;;;;;;1.65;0.75;;;;;;;;;;4982278;28;20054;-58
2023/08/28 11:18:23;;;;;;;0.98;0.75;;;;;;;;;;4986103;28;20400;-63
2023/08/28 11:20:53;;;;;;;1.10;0.55;;;;;;;;;;4986374;28;20590;-61
2023/08/28 11:23:25;;;;;;;0.93;0.40;;;;;;;;;;4985655;28;20129;-60
2023/08/28 11:25:55;;;;;;;1.05;0.63;;;;;;;;;;4981428;28;20046;-59
2023/08/28 11:28:29;;;;;;;0.60;0.45;;;;;;;;;;4981023;28;21819;-59
2023/08/28 11:31:01;;;;;;;0.93;0.65;;;;;;;;;;4979974;28;20066;-62
2023/08/28 11:33:36;;;;;;;0.73;0.57;;;;;;;;;;4985121;28;20045;-60
2023/08/28 11:36:04;;;;;;;1.00;0.63;;;;;;;;;;4984749;28;20097;-60
2023/08/28 11:38:33;;;;;;;0.82;0.63;;;;;;;;;;4986356;28;20050;-61
2023/08/28 11:41:04;;;;;;;0.60;0.40;;;;;;;;;;4984951;28;20054;-61
2023/08/28 11:43:36;;;;;;;1.20;0.55;;;;;;;;;;4982555;28;20062;-61
2023/08/28 11:46:06;;;;;;;2.90;0.52;;;;;;;;;;4985216;28;20096;-59
2023/08/28 11:48:35;;;;;;;1.10;0.50;;;;;;;;;;4984225;28;20170;-61
2023/08/28 11:51:04;;;;;;;0.40;0.40;;;;;;;;;;4981432;28;20525;-59
2023/08/28 11:53:33;;;;;;;1.67;0.70;;;;;;;;;;4983599;28;20046;-65
2023/08/28 11:56:04;;;;;;;0.60;0.55;;;;;;;;;;4984836;28;20046;-59
2023/08/28 11:58:32;;;;;;;2.15;0.70;;;;;;;;;;4982709;28;20047;-61
2023/08/28 12:01:01;;;;;;;1.10;0.80;;;;;;;;;;4982450;28;20487;-59
2023/08/28 12:03:32;;;;;;;1.90;0.60;;;;;;;;;;4980430;28;20062;-63
2023/08/28 12:06:06;;;;;;;0.98;0.68;;;;;;;;;;4982308;28;20045;-59
2023/08/28 12:08:35;;;;;;;1.20;0.63;;;;;;;;;;4982904;28;20142;-59
2023/08/28 12:11:04;;;;;;;1.35;0.75;;;;;;;;;;4982706;28;20050;-61
2023/08/28 12:13:33;;;;;;;1.00;0.70;;;;;;;;;;4978199;28;20166;-58
2023/08/28 12:16:14;;;;;;;1.02;0.57;;;;;;;;;;4981530;28;20046;-59
2023/08/28 12:18:45;;;;;;;0.90;0.60;;;;;;;;;;4981613;28;20060;-58
2023/08/28 12:21:15;;;;;;;0.95;0.47;;;;;;;;;;4983026;28;20601;-60
2023/08/28 12:23:46;;;;;;;0.77;0.50;;;;;;;;;;4982805;28;20050;-60
2023/08/28 12:26:17;;;;;;;1.80;0.80;;;;;;;;;;4976689;28;20057;-59
2023/08/28 12:28:46;;;;;;;4.95;0.70;;;;;;;;;;4980275;28;20046;-63
2023/08/28 12:31:14;;;;;;;4.00;0.55;;;;;;;;;;4977781;28;20499;-60
2023/08/28 12:33:44;;;;;;;1.40;0.80;;;;;;;;;;4982708;28;20050;-60
2023/08/28 12:36:15;;;;;;;3.67;0.70;;;;;;;;;;4981380;28;20138;-60
2023/08/28 12:38:47;;;;;;;1.45;0.80;;;;;;;;;;4983959;28;20499;-60
2023/08/28 12:41:15;;;;;;;1.55;0.68;;;;;;;;;;4977554;28;20058;-60
2023/08/28 12:43:45;;;;;;;1.83;0.60;;;;;;;;;;4982052;28;20046;-61
2023/08/28 12:46:14;;;;;;;1.13;0.52;;;;;;;;;;4985816;28;20064;-59
2023/08/28 12:48:43;;;;;;;1.30;0.70;;;;;;;;;;4982437;28;20404;-60
2023/08/28 12:51:11;;;;;;;1.45;0.70;;;;;;;;;;4981120;28;20042;-60
2023/08/28 12:53:41;;;;;;;1.02;0.65;;;;;;;;;;4981534;28;20602;-60
2023/08/28 12:56:09;;;;;;;0.93;0.50;;;;;;;;;;4981031;28;20447;-61
2023/08/28 12:58:38;;;;;;;0.95;0.50;;;;;;;;;;4980993;28;20591;-60
2023/08/28 13:01:07;;;;;;;0.50;0.47;;;;;;;;;;4981990;28;20058;-62
2023/08/28 13:03:35;;;;;;;1.05;0.60;;;;;;;;;;4980865;28;20065;-64
2023/08/28 13:06:04;;;;;;;0.80;0.60;;;;;;;;;;4982231;28;20042;-60
2023/08/28 13:08:33;;;;;;;0.52;0.50;;;;;;;;;;4983312;28;20747;-59
2023/08/28 13:11:03;;;;;;;2.08;0.47;;;;;;;;;;4981209;28;20649;-61
2023/08/28 13:13:31;;;;;;;0.90;0.50;;;;;;;;;;4981112;28;20053;-60
2023/08/28 13:16:00;;;;;;;1.30;0.63;;;;;;;;;;4983035;28;20066;-62
2023/08/28 13:18:29;;;;;;;0.82;0.57;;;;;;;;;;4980711;28;20133;-59
2023/08/28 13:20:57;;;;;;;1.10;0.60;;;;;;;;;;4982507;28;20396;-60
2023/08/28 13:23:26;;;;;;;1.08;0.80;;;;;;;;;;4978334;28;20136;-61
2023/08/28 13:25:54;;;;;;;1.52;0.90;;;;;;;;;;4982456;28;20597;-60
2023/08/28 13:28:24;;;;;;;0.73;0.68;;;;;;;;;;4978907;28;20046;-60
2023/08/28 13:30:52;;;;;;;0.77;0.60;;;;;;;;;;4980086;28;20077;-61
2023/08/28 13:33:21;;;;;;;1.52;0.65;;;;;;;;;;4980743;28;20054;-61
2023/08/28 13:35:49;;;;;;;1.13;0.60;;;;;;;;;;4983534;28;20056;-61
2023/08/28 13:38:18;;;;;;;1.65;0.60;;;;;;;;;;4977655;28;20128;-59
2023/08/28 13:40:46;;;;;;;0.85;0.65;;;;;;;;;;4979355;28;20058;-62
2023/08/28 13:43:15;;;;;;;1.50;0.95;;;;;;;;;;4982602;28;20050;-60
2023/08/28 13:45:44;;;;;;;1.38;0.70;;;;;;;;;;4983737;28;20648;-60
2023/08/28 13:48:13;;;;;;;4.03;0.80;;;;;;;;;;4979655;28;20097;-62
2023/08/28 13:50:42;;;;;;;0.73;0.60;;;;;;;;;;4973759;28;20579;-58
2023/08/28 13:53:11;;;;;;;2.70;1.00;;;;;;;;;;4974399;28;20050;-60
2023/08/28 13:55:39;;;;;;;1.40;0.85;;;;;;;;;;4979113;28;21127;-60
2023/08/28 13:58:08;;;;;;;0.88;0.60;;;;;;;;;;4983778;28;20146;-61
2023/08/28 14:00:36;;;;;;;0.85;0.68;;;;;;;;;;4981718;28;20129;-59
2023/08/28 14:03:07;;;;;;;1.13;0.68;;;;;;;;;;4981398;28;20567;-59
2023/08/28 14:05:36;;;;;;;0.77;0.50;;;;;;;;;;4984269;28;20055;-59
2023/08/28 14:08:04;;;;;;;0.85;0.63;;;;;;;;;;4982809;28;20104;-62
2023/08/28 14:10:32;;;;;;;0.80;0.60;;;;;;;;;;4982637;28;20350;-59
2023/08/28 14:13:01;;;;;;;1.02;0.70;;;;;;;;;;4985046;28;20050;-60
2023/08/28 14:15:31;;;;;;;1.73;0.90;;;;;;;;;;4985326;28;20494;-59
2023/08/28 14:18:00;;;;;;;0.98;0.60;;;;;;;;;;4982867;28;20051;-61
2023/08/28 14:20:33;;;;;;;1.27;0.90;;;;;;;;;;4984759;28;20144;-59
2023/08/28 14:23:02;;;;;;;0.98;0.70;;;;;;;;;;4981620;28;20043;-61
2023/08/28 14:25:31;;;;;;;1.35;0.90;;;;;;;;;;4975832;28;20400;-63
2023/08/28 14:28:00;;;;;;;1.98;0.88;;;;;;;;;;4979622;28;20492;-59
2023/08/28 14:30:47;;;;;;;1.75;0.80;;;;;;;;;;4977300;28;20051;-60
2023/08/28 14:33:16;;;;;;;0.82;0.70;;;;;;;;;;4979379;28;20101;-60
2023/08/28 14:35:46;;;;;;;1.65;0.63;;;;;;;;;;4981605;28;20477;-59
2023/08/28 14:38:14;;;;;;;0.82;0.68;;;;;;;;;;4985417;28;20046;-62
2023/08/28 14:40:45;;;;;;;0.77;0.63;;;;;;;;;;4985387;28;20058;-59
2023/08/28 14:43:15;;;;;;;0.90;0.60;;;;;;;;;;4984209;28;20042;-59
2023/08/28 14:45:44;;;;;;;0.70;0.52;;;;;;;;;;4988470;28;20281;-59
2023/08/28 14:48:13;;;;;;;0.82;0.52;;;;;;;;;;4982490;28;20056;-59
2023/08/28 14:50:42;;;;;;;1.15;0.60;;;;;;;;;;4979019;28;20543;-60
2023/08/28 14:53:11;;;;;;;0.50;0.40;;;;;;;;;;4987023;28;20442;-58
2023/08/28 14:55:40;;;;;;;0.38;0.38;;;;;;;;;;4985456;28;20046;-59